Terminal Aerodrome Forecast
Issued by NWS

Home | Current Version | Previous Version | Text Only | Print | Product List | Glossary On
Versions: 1 2 3 4 5 6 7 8 9 10 11 12 13 14 15 16 17 18 19 20 21 22 23 24 25 26 27 28 29 30 31
000
FTUS41 KBOX 300524
TAFBAF
TAF
KBAF 300524Z 3006/3106 19006KT P6SM SCT150
     FM301000 20008KT P6SM BKN090
     FM301400 20009KT P6SM OVC025
      TEMPO 3015/3018 4SM -SHRA OVC015
     FM302000 24010KT P6SM BKN040=

USA.gov is the U.S. government's official web portal to all federal, state and local government web resources and services.